Time;durP1;ratioP1;P1;durP2;ratioP2;P2;SDS_P1;SDS_P2;PMS_P1;PMS_P2;Temp;Humidity;BMP_temperature;BMP_pressure;BME280_temperature;BME280_humidity;BME280_pressure;Samples;Min_cycle;Max_cycle;Signal;HPM_P1;HPM_P2
2023/03/11 00:00:56;;;;;;;3.40;1.73;;;1.30;99.90;;;;;;4925639;28;20087;-77
2023/03/11 00:03:22;;;;;;;2.42;1.45;;;1.40;99.90;;;;;;4923444;28;20519;-78
2023/03/11 00:05:47;;;;;;;2.17;1.40;;;1.40;99.90;;;;;;4912741;28;20502;-77
2023/03/11 00:08:15;;;;;;;2.05;1.15;;;1.30;99.90;;;;;;4931536;28;20027;-77
2023/03/11 00:10:42;;;;;;;2.35;1.42;;;1.20;99.90;;;;;;4938917;28;20086;-77
2023/03/11 00:13:09;;;;;;;2.25;0.98;;;1.40;99.90;;;;;;4895597;28;20045;-77
2023/03/11 00:15:35;;;;;;;4.57;1.85;;;1.40;99.90;;;;;;4933845;28;20087;-77
2023/03/11 00:18:00;;;;;;;2.65;1.88;;;1.40;99.90;;;;;;4915455;28;20492;-77
2023/03/11 00:20:36;;;;;;;4.45;2.00;;;1.30;99.90;;;;;;4928469;28;20039;-77
2023/03/11 00:23:03;;;;;;;2.28;1.50;;;1.30;99.90;;;;;;4939576;28;20032;-78
2023/03/11 00:25:33;;;;;;;4.13;1.92;;;1.40;99.90;;;;;;4931714;28;20090;-77
2023/03/11 00:27:59;;;;;;;4.57;2.55;;;1.30;99.90;;;;;;4897929;28;20031;-77
2023/03/11 00:30:25;;;;;;;3.67;2.00;;;1.20;99.90;;;;;;4903284;28;20113;-77
2023/03/11 00:32:52;;;;;;;4.70;1.65;;;1.30;99.90;;;;;;4918358;28;20042;-77
2023/03/11 00:35:23;;;;;;;3.70;2.35;;;1.40;99.90;;;;;;4929323;28;20119;-77
2023/03/11 00:37:52;;;;;;;5.40;2.65;;;1.30;99.90;;;;;;4928719;28;20087;-78
2023/03/11 00:40:20;;;;;;;5.20;2.28;;;1.30;99.90;;;;;;4916786;28;20086;-77
2023/03/11 00:42:46;;;;;;;2.65;1.73;;;1.30;99.90;;;;;;4939707;28;20537;-77
2023/03/11 00:45:12;;;;;;;1.95;1.52;;;1.30;99.90;;;;;;4901136;28;20035;-77
2023/03/11 00:47:37;;;;;;;3.38;2.08;;;1.30;99.90;;;;;;4926673;28;20035;-77
2023/03/11 00:50:03;;;;;;;5.45;1.92;;;1.30;99.90;;;;;;4918589;28;20047;-77
2023/03/11 00:52:29;;;;;;;3.30;1.75;;;1.30;99.90;;;;;;4895760;28;20043;-76
2023/03/11 00:54:55;;;;;;;5.72;1.65;;;1.40;99.90;;;;;;4929914;28;20480;-77
2023/03/11 00:57:20;;;;;;;3.45;1.50;;;1.40;99.90;;;;;;4929535;28;20664;-76
2023/03/11 00:59:46;;;;;;;4.55;1.30;;;1.30;99.90;;;;;;4901283;28;20040;-76
2023/03/11 01:02:11;;;;;;;2.45;1.92;;;1.30;99.90;;;;;;4941298;28;20039;-76
2023/03/11 01:04:37;;;;;;;5.88;1.90;;;1.30;99.90;;;;;;4910565;28;20043;-77
2023/03/11 01:07:02;;;;;;;5.55;1.58;;;1.30;99.90;;;;;;4945698;28;20658;-77
2023/03/11 01:09:28;;;;;;;3.05;1.90;;;1.20;99.90;;;;;;4911054;28;20196;-76
2023/03/11 01:11:53;;;;;;;4.72;1.77;;;1.30;99.90;;;;;;4915469;28;20083;-76
2023/03/11 01:14:19;;;;;;;2.45;1.17;;;1.20;99.90;;;;;;4950959;28;20028;-77
2023/03/11 01:16:45;;;;;;;3.78;1.83;;;1.30;99.90;;;;;;4915835;28;20520;-77
2023/03/11 01:19:11;;;;;;;5.63;1.58;;;1.10;99.90;;;;;;4948912;28;20039;-77
2023/03/11 01:21:36;;;;;;;6.47;2.38;;;1.20;99.90;;;;;;4917595;28;20043;-77
2023/03/11 01:24:02;;;;;;;4.68;1.77;;;1.20;99.90;;;;;;4908879;28;20032;-77
2023/03/11 01:26:28;;;;;;;7.90;2.10;;;1.20;99.90;;;;;;4946790;28;20554;-77
2023/03/11 01:28:53;;;;;;;5.85;1.73;;;1.20;99.90;;;;;;4923842;28;20031;-77
2023/03/11 01:31:19;;;;;;;2.42;1.40;;;1.20;99.90;;;;;;4915007;28;20027;-76
2023/03/11 01:33:44;;;;;;;4.05;2.40;;;1.20;99.90;;;;;;4934036;28;20106;-76
2023/03/11 01:36:10;;;;;;;7.28;2.33;;;1.30;99.90;;;;;;4933664;28;20093;-76
2023/03/11 01:38:35;;;;;;;1.70;1.17;;;1.20;99.90;;;;;;4931798;28;20389;-77
2023/03/11 01:41:01;;;;;;;6.20;2.30;;;1.30;99.90;;;;;;4909343;28;20487;-77
2023/03/11 01:43:42;;;;;;;6.78;2.22;;;1.20;99.90;;;;;;4954153;28;20032;-77
2023/03/11 01:46:26;;;;;;;7.15;2.05;;;1.20;99.90;;;;;;4951600;28;20035;-77
2023/03/11 01:48:56;;;;;;;7.32;2.20;;;1.10;99.90;;;;;;4917334;28;20032;-77
2023/03/11 01:51:34;;;;;;;9.27;2.60;;;1.20;99.90;;;;;;4914612;28;20028;-77
2023/03/11 01:54:02;;;;;;;5.43;2.10;;;1.10;99.90;;;;;;4927974;28;20073;-77
2023/03/11 01:56:29;;;;;;;4.85;1.95;;;1.20;99.90;;;;;;4918508;28;20028;-77
2023/03/11 01:58:55;;;;;;;6.25;2.35;;;1.20;99.90;;;;;;4911736;28;20062;-77
2023/03/11 02:01:20;;;;;;;3.25;1.65;;;1.10;99.90;;;;;;4906706;28;20054;-77
2023/03/11 02:03:46;;;;;;;4.78;1.73;;;1.10;99.90;;;;;;4920956;28;20088;-77
2023/03/11 02:06:16;;;;;;;2.38;1.60;;;1.10;99.90;;;;;;4925571;28;20042;-77
2023/03/11 02:08:42;;;;;;;3.60;1.58;;;1.10;99.90;;;;;;4935562;28;20042;-77
2023/03/11 02:11:10;;;;;;;5.63;1.80;;;1.20;99.90;;;;;;4916835;28;20640;-77
2023/03/11 02:13:36;;;;;;;4.30;1.60;;;1.10;99.90;;;;;;4917231;28;20054;-77
2023/03/11 02:16:02;;;;;;;4.82;1.58;;;0.90;99.90;;;;;;4910716;28;20035;-77
2023/03/11 02:18:28;;;;;;;3.08;1.33;;;1.00;99.90;;;;;;4938116;28;20068;-77
2023/03/11 02:21:12;;;;;;;3.53;1.23;;;1.00;99.90;;;;;;4918361;28;20507;-75
2023/03/11 02:23:59;;;;;;;2.45;1.40;;;1.00;99.90;;;;;;4931614;28;20440;-76
2023/03/11 02:26:38;;;;;;;;;;;1.10;99.90;;;;;;4935750;28;20031;-76
2023/03/11 02:29:04;;;;;;;9.00;1.95;;;1.00;99.90;;;;;;4940622;28;19917;-76
2023/03/11 02:31:30;;;;;;;5.78;1.70;;;0.90;99.90;;;;;;4922738;28;20027;-77
2023/03/11 02:33:55;;;;;;;5.00;1.80;;;0.90;99.90;;;;;;4902419;28;20035;-77
2023/03/11 02:36:37;;;;;;;10.05;2.67;;;0.90;99.90;;;;;;4916555;28;20453;-77
2023/03/11 02:39:03;;;;;;;7.50;2.25;;;1.00;99.90;;;;;;4945453;28;20038;-77
2023/03/11 02:41:30;;;;;;;2.72;1.50;;;0.90;99.90;;;;;;4935157;28;20042;-77
2023/03/11 02:43:55;;;;;;;7.40;2.45;;;0.90;99.90;;;;;;4897450;28;20074;-77
2023/03/11 02:46:21;;;;;;;9.88;2.42;;;0.80;99.90;;;;;;4918362;28;20062;-77
2023/03/11 02:48:46;;;;;;;6.22;2.40;;;0.80;99.90;;;;;;4921898;28;20110;-77
2023/03/11 02:51:12;;;;;;;9.73;3.13;;;0.80;99.90;;;;;;4935401;28;20051;-77
2023/03/11 02:53:49;;;;;;;7.57;3.10;;;0.80;99.90;;;;;;4916877;28;20785;-78
2023/03/11 02:56:15;;;;;;;11.60;3.72;;;0.80;99.90;;;;;;4910998;28;20479;-77
2023/03/11 02:58:41;;;;;;;9.65;3.15;;;0.70;99.90;;;;;;4896401;28;20039;-77
2023/03/11 03:01:06;;;;;;;4.57;2.42;;;0.60;99.90;;;;;;4933641;28;20551;-76
2023/03/11 03:03:32;;;;;;;11.80;3.42;;;0.60;99.90;;;;;;4933758;28;20026;-75
2023/03/11 03:05:57;;;;;;;9.60;3.42;;;0.70;99.90;;;;;;4917295;28;20031;-77
2023/03/11 03:08:23;;;;;;;12.43;2.78;;;0.70;99.90;;;;;;4915863;28;20031;-77
2023/03/11 03:10:48;;;;;;;9.82;3.30;;;0.70;99.90;;;;;;4909162;28;20023;-77
2023/03/11 03:13:14;;;;;;;11.73;3.28;;;0.60;99.90;;;;;;4915663;28;20028;-78
2023/03/11 03:15:39;;;;;;;13.43;3.47;;;0.60;99.90;;;;;;4936872;28;20035;-78
2023/03/11 03:18:05;;;;;;;8.27;2.80;;;0.60;99.90;;;;;;4920305;28;20104;-78
2023/03/11 03:20:31;;;;;;;7.93;2.88;;;0.60;99.90;;;;;;4932552;28;20031;-77
2023/03/11 03:22:56;;;;;;;6.65;2.25;;;0.50;99.90;;;;;;4932688;28;20030;-76
2023/03/11 03:25:22;;;;;;;11.73;2.53;;;0.60;99.90;;;;;;4952306;28;20031;-77
2023/03/11 03:27:48;;;;;;;7.57;2.72;;;0.60;99.90;;;;;;4928752;28;20030;-77
2023/03/11 03:30:14;;;;;;;10.55;2.78;;;0.60;99.90;;;;;;4945596;28;20432;-76
2023/03/11 03:32:39;;;;;;;8.27;2.90;;;0.70;99.90;;;;;;4914906;28;20042;-77
2023/03/11 03:35:05;;;;;;;7.72;2.30;;;0.60;99.90;;;;;;4902916;29;20034;-76
2023/03/11 03:37:32;;;;;;;11.40;2.80;;;0.70;99.90;;;;;;4909291;28;20086;-76
2023/03/11 03:39:57;;;;;;;7.10;2.70;;;0.60;99.90;;;;;;4949742;28;20103;-76
2023/03/11 03:42:24;;;;;;;11.13;3.08;;;0.60;99.90;;;;;;4932360;28;20123;-76
2023/03/11 03:44:50;;;;;;;6.97;2.38;;;0.60;99.90;;;;;;4932456;28;20034;-77
2023/03/11 03:47:16;;;;;;;12.68;2.17;;;0.60;99.90;;;;;;4914909;28;20082;-76
2023/03/11 03:49:41;;;;;;;8.02;2.08;;;0.60;99.90;;;;;;4912453;28;20035;-77
2023/03/11 03:52:07;;;;;;;4.57;2.10;;;0.60;99.90;;;;;;4900851;28;20102;-77
2023/03/11 03:54:33;;;;;;;8.23;1.42;;;0.60;99.90;;;;;;4918475;28;20045;-76
2023/03/11 03:57:02;;;;;;;8.25;2.17;;;0.60;99.90;;;;;;4917109;28;20059;-77
2023/03/11 03:59:27;;;;;;;9.25;1.92;;;0.50;99.90;;;;;;4911036;28;20555;-77
2023/03/11 04:01:53;;;;;;;2.50;1.60;;;0.60;99.90;;;;;;4911043;28;20130;-77
2023/03/11 04:04:18;;;;;;;8.52;1.77;;;0.60;99.90;;;;;;4913743;28;20035;-77
2023/03/11 04:06:44;;;;;;;8.13;2.05;;;0.50;99.90;;;;;;4924645;28;20112;-76
2023/03/11 04:09:10;;;;;;;6.55;1.38;;;0.30;99.90;;;;;;4929284;28;20031;-76
2023/03/11 04:11:36;;;;;;;7.90;1.73;;;0.40;99.90;;;;;;4910736;28;20050;-76
2023/03/11 04:14:02;;;;;;;7.93;2.17;;;0.50;99.90;;;;;;4902078;28;20031;-76
2023/03/11 04:16:28;;;;;;;12.80;2.40;;;0.40;99.90;;;;;;4915915;28;20054;-77
2023/03/11 04:18:53;;;;;;;6.95;1.70;;;0.40;99.90;;;;;;4949014;28;20046;-77
2023/03/11 04:21:19;;;;;;;6.50;1.80;;;0.40;99.90;;;;;;4911933;28;20034;-76
2023/03/11 04:23:44;;;;;;;8.13;1.60;;;0.40;99.90;;;;;;4894652;28;20503;-76
2023/03/11 04:26:10;;;;;;;8.50;1.35;;;0.50;99.90;;;;;;4900746;28;20064;-76
2023/03/11 04:28:35;;;;;;;7.25;1.90;;;0.40;99.90;;;;;;4936453;28;20114;-76
2023/03/11 04:31:01;;;;;;;7.65;1.27;;;0.40;99.90;;;;;;4933788;28;20027;-76
2023/03/11 04:33:26;;;;;;;9.63;1.45;;;0.50;99.90;;;;;;4915552;28;20035;-77
2023/03/11 04:35:52;;;;;;;6.13;1.50;;;0.40;99.90;;;;;;4912035;28;20028;-77
2023/03/11 04:38:17;;;;;;;9.07;2.10;;;0.40;99.90;;;;;;4948007;28;20034;-76
2023/03/11 04:40:43;;;;;;;4.28;1.52;;;0.30;99.90;;;;;;4928573;28;20050;-76
2023/03/11 04:43:08;;;;;;;6.70;1.23;;;0.40;99.90;;;;;;4930653;28;20031;-77
2023/03/11 04:45:37;;;;;;;6.32;1.67;;;0.30;99.90;;;;;;4929230;28;20388;-76
2023/03/11 04:48:03;;;;;;;6.15;1.20;;;0.50;99.90;;;;;;4901580;28;20411;-76
2023/03/11 04:50:29;;;;;;;3.20;1.30;;;0.50;99.90;;;;;;4915823;28;20039;-76
2023/03/11 04:52:55;;;;;;;10.82;1.83;;;0.40;99.90;;;;;;4912225;28;20031;-77
2023/03/11 04:55:21;;;;;;;5.43;1.35;;;0.30;99.90;;;;;;4932257;28;20453;-76
2023/03/11 04:57:46;;;;;;;5.95;1.40;;;0.40;99.90;;;;;;4909371;28;20062;-76
2023/03/11 05:00:14;;;;;;;5.78;1.70;;;0.40;99.90;;;;;;4940593;28;20040;-77
2023/03/11 05:02:40;;;;;;;4.85;1.13;;;0.40;99.90;;;;;;4897906;28;20559;-75
2023/03/11 05:05:06;;;;;;;9.05;1.40;;;0.40;99.90;;;;;;4932638;28;20119;-76
2023/03/11 05:07:31;;;;;;;5.80;1.48;;;0.30;99.90;;;;;;4933306;28;20109;-76
2023/03/11 05:09:57;;;;;;;10.43;1.83;;;0.30;99.90;;;;;;4923712;28;20488;-75
2023/03/11 05:12:22;;;;;;;10.45;1.75;;;0.30;99.90;;;;;;4921922;28;20557;-76
2023/03/11 05:14:48;;;;;;;7.32;1.38;;;0.30;99.90;;;;;;4913695;28;20035;-75
2023/03/11 05:17:13;;;;;;;9.10;1.95;;;0.30;99.90;;;;;;4946386;28;20074;-76
2023/03/11 05:19:39;;;;;;;7.25;2.05;;;0.30;99.90;;;;;;4933454;28;20047;-76
2023/03/11 05:22:05;;;;;;;7.13;1.20;;;0.40;99.90;;;;;;4935605;28;20039;-76
2023/03/11 05:24:31;;;;;;;7.88;1.85;;;0.30;99.90;;;;;;4907905;28;20062;-76
2023/03/11 05:26:57;;;;;;;10.88;1.90;;;0.30;99.90;;;;;;4898187;28;20035;-77
2023/03/11 05:29:23;;;;;;;6.30;2.08;;;0.40;99.90;;;;;;4934067;28;20063;-76
2023/03/11 05:31:49;;;;;;;11.77;1.20;;;0.30;99.90;;;;;;4946115;28;20066;-77
2023/03/11 07:33:44;;;;;;;8.57;2.67;;;0.60;99.90;;;;;;5181621;23;20050;-78
2023/03/11 07:36:12;;;;;;;12.48;3.05;;;0.60;99.90;;;;;;4959943;28;20289;-78
2023/03/11 07:38:37;;;;;;;4.50;2.17;;;0.60;99.90;;;;;;4978390;28;20093;-78
2023/03/11 07:41:03;;;;;;;8.93;2.53;;;0.60;99.90;;;;;;4947003;28;20031;-78
2023/03/11 07:43:29;;;;;;;6.85;1.85;;;0.60;99.90;;;;;;4932046;28;20042;-78
2023/03/11 07:46:17;;;;;;;7.30;2.95;;;0.80;99.90;;;;;;4932323;28;20403;-77
2023/03/11 07:48:43;;;;;;;5.18;2.20;;;0.70;99.90;;;;;;4944924;28;20069;-78
2023/03/11 07:51:19;;;;;;;10.75;3.38;;;0.90;99.90;;;;;;4931561;28;20467;-77
2023/03/11 07:53:45;;;;;;;10.48;2.97;;;0.90;99.90;;;;;;4954321;28;20034;-77
2023/03/11 07:56:11;;;;;;;7.75;2.55;;;0.90;99.90;;;;;;4978169;28;20118;-77
2023/03/11 07:58:37;;;;;;;9.52;2.88;;;0.90;99.90;;;;;;4936845;28;20038;-76
2023/03/11 08:01:05;;;;;;;9.60;3.55;;;1.20;99.90;;;;;;4965079;28;20098;-76
2023/03/11 08:03:31;;;;;;;8.63;3.08;;;1.00;99.90;;;;;;4957135;28;20178;-76
2023/03/11 08:05:57;;;;;;;7.85;2.85;;;1.20;99.90;;;;;;4925587;28;20193;-75
2023/03/11 08:08:23;;;;;;;8.75;3.40;;;1.30;99.90;;;;;;4963000;28;20037;-75
2023/03/11 08:10:48;;;;;;;12.00;2.72;;;1.30;99.90;;;;;;4972775;28;20022;-75
2023/03/11 08:13:14;;;;;;;12.43;2.90;;;1.40;99.90;;;;;;4938055;28;20038;-75
2023/03/11 08:15:39;;;;;;;9.35;2.40;;;1.40;99.90;;;;;;4945976;28;20038;-75
2023/03/11 08:18:05;;;;;;;15.32;3.35;;;1.70;99.90;;;;;;4958218;28;20057;-76
2023/03/11 08:20:30;;;;;;;5.32;2.38;;;1.60;99.90;;;;;;4966673;28;20235;-76
2023/03/11 08:22:56;;;;;;;7.53;2.58;;;1.50;99.90;;;;;;4962798;28;20031;-77
2023/03/11 08:25:22;;;;;;;8.98;2.30;;;1.50;99.90;;;;;;4955503;28;20034;-76
2023/03/11 08:27:47;;;;;;;10.20;3.63;;;1.90;99.90;;;;;;4942464;28;20108;-76
2023/03/11 08:30:13;;;;;;;7.53;3.13;;;1.80;99.90;;;;;;4938613;28;20049;-77
2023/03/11 08:32:39;;;;;;;5.70;1.50;;;1.90;99.90;;;;;;4964810;28;20050;-77
2023/03/11 08:35:05;;;;;;;8.02;2.33;;;2.20;99.90;;;;;;4940388;28;20089;-77
2023/03/11 08:37:30;;;;;;;10.63;3.28;;;2.50;99.90;;;;;;4953102;28;20241;-77
2023/03/11 08:39:56;;;;;;;5.43;2.25;;;2.50;99.90;;;;;;4958994;28;20091;-76
2023/03/11 08:42:21;;;;;;;8.65;2.90;;;2.00;99.90;;;;;;4975903;28;20545;-77
2023/03/11 08:44:47;;;;;;;8.70;2.95;;;2.40;99.90;;;;;;4974474;28;20033;-77
2023/03/11 08:47:13;;;;;;;6.47;2.03;;;1.80;99.90;;;;;;5003589;28;20033;-77
2023/03/11 08:49:38;;;;;;;5.57;2.67;;;2.50;99.90;;;;;;4989599;28;20027;-77
2023/03/11 08:52:04;;;;;;;6.55;1.73;;;2.50;99.90;;;;;;4967832;28;20030;-77
2023/03/11 08:54:30;;;;;;;2.88;1.42;;;2.40;99.90;;;;;;4969482;28;20060;-76
2023/03/11 08:56:55;;;;;;;4.95;1.65;;;2.30;99.90;;;;;;4964974;28;20121;-77
2023/03/11 08:59:21;;;;;;;6.38;1.70;;;2.70;99.90;;;;;;5012704;28;20038;-77
2023/03/11 09:01:46;;;;;;;6.80;1.52;;;2.50;99.90;;;;;;4989363;28;20034;-77
2023/03/11 09:04:12;;;;;;;10.32;1.38;;;2.70;99.90;;;;;;4961522;28;20084;-77
2023/03/11 09:06:42;;;;;;;7.10;1.38;;;2.60;99.90;;;;;;4973202;28;20034;-77
2023/03/11 09:09:09;;;;;;;5.60;1.83;;;2.30;99.90;;;;;;4971428;28;20026;-79
2023/03/11 09:11:36;;;;;;;6.68;1.40;;;1.70;99.90;;;;;;4967550;28;20042;-77
2023/03/11 09:14:02;;;;;;;10.65;1.63;;;1.90;99.90;;;;;;4979265;28;20030;-77
2023/03/11 09:16:27;;;;;;;8.38;1.30;;;1.60;99.90;;;;;;5003649;28;20034;-77
2023/03/11 09:18:53;;;;;;;4.90;1.08;;;2.20;99.90;;;;;;4968532;28;20409;-77
2023/03/11 09:21:19;;;;;;;3.85;1.35;;;2.50;99.90;;;;;;4971914;28;20054;-77
2023/03/11 09:23:44;;;;;;;1.40;0.93;;;1.90;99.90;;;;;;4991407;28;20038;-77
2023/03/11 09:26:10;;;;;;;3.20;1.02;;;1.70;99.90;;;;;;4954342;28;20088;-77
2023/03/11 09:28:36;;;;;;;3.55;0.80;;;1.70;99.90;;;;;;4970965;28;20857;-76
2023/03/11 09:31:02;;;;;;;5.68;0.90;;;1.60;99.90;;;;;;4957623;28;20038;-76
2023/03/11 09:33:27;;;;;;;3.60;0.60;;;1.70;99.90;;;;;;4981343;28;20383;-76
2023/03/11 09:35:53;;;;;;;3.38;0.60;;;1.60;99.90;;;;;;4969546;28;20026;-77
2023/03/11 09:38:18;;;;;;;10.57;1.08;;;2.50;99.90;;;;;;4992110;28;20059;-76
2023/03/11 09:41:25;;;;;;;6.05;0.65;;;2.70;99.90;;;;;;4970587;28;20034;-77
2023/03/11 09:44:05;;;;;;;6.82;1.00;;;3.40;99.90;;;;;;4967079;28;20040;-77
2023/03/11 09:46:59;;;;;;;3.90;1.02;;;3.10;99.90;;;;;;4985078;28;20038;-77
2023/03/11 09:50:15;;;;;;;9.73;0.98;;;2.90;99.90;;;;;;4992427;28;20125;-77
2023/03/11 09:53:10;;;;;;;9.95;1.23;;;2.20;99.90;;;;;;4952329;28;20110;-77
2023/03/11 09:55:49;;;;;;;4.55;1.00;;;2.10;99.90;;;;;;4957329;28;20041;-77
2023/03/11 09:58:43;;;;;;;4.60;1.13;;;2.00;99.90;;;;;;4979336;28;20034;-77
2023/03/11 10:01:32;;;;;;;5.72;0.80;;;1.90;99.90;;;;;;4984297;28;20034;-77
2023/03/11 10:04:09;;;;;;;4.72;0.70;;;2.20;99.90;;;;;;4987561;28;20042;-76
2023/03/11 10:06:34;;;;;;;11.90;1.05;;;2.10;99.90;;;;;;4989603;28;20084;-77
2023/03/11 10:09:11;;;;;;;8.82;0.57;;;2.10;99.90;;;;;;4976527;28;20034;-77
2023/03/11 10:12:01;;;;;;;4.35;0.88;;;2.40;99.90;;;;;;4975259;28;20591;-76
2023/03/11 10:15:00;;;;;;;2.08;0.50;;;2.90;99.90;;;;;;4989911;28;20381;-76
2023/03/11 10:17:41;;;;;;;2.67;0.68;;;3.20;99.90;;;;;;4990441;28;20030;-77
2023/03/11 10:20:25;;;;;;;2.47;0.60;;;3.90;99.90;;;;;;5000770;28;20128;-76
2023/03/11 10:23:09;;;;;;;3.80;1.10;;;4.20;99.90;;;;;;4993473;28;20489;-76
2023/03/11 10:26:08;;;;;;;1.08;0.80;;;4.10;99.90;;;;;;4985569;28;20460;-76
2023/03/11 10:28:46;;;;;;;6.65;2.08;;;4.60;99.90;;;;;;4977608;28;20065;-76
2023/03/11 10:31:19;;;;;;;4.93;1.05;;;4.10;99.90;;;;;;4979174;28;20030;-77
2023/03/11 10:33:52;;;;;;;2.83;1.35;;;4.60;99.90;;;;;;4985246;28;20616;-77
2023/03/11 10:36:23;;;;;;;7.53;1.98;;;5.00;99.90;;;;;;4972682;28;20055;-77
2023/03/11 10:38:50;;;;;;;9.43;1.92;;;5.10;99.90;;;;;;4956533;28;20040;-76
2023/03/11 10:41:43;;;;;;;4.32;1.50;;;4.90;99.90;;;;;;4955758;28;20037;-77
2023/03/11 10:44:24;;;;;;;2.05;1.15;;;5.10;99.90;;;;;;4960646;28;20516;-77
2023/03/11 10:46:50;;;;;;;5.65;0.80;;;5.80;99.90;;;;;;4970551;28;20042;-76
2023/03/11 10:49:16;;;;;;;5.35;1.13;;;5.30;99.90;;;;;;4975541;28;20038;-77
2023/03/11 10:51:47;;;;;;;15.35;1.63;;;5.10;99.90;;;;;;4957123;28;20035;-77
2023/03/11 10:54:26;;;;;;;2.63;1.00;;;5.60;99.90;;;;;;4972283;28;20784;-77
2023/03/11 10:57:02;;;;;;;2.92;0.90;;;5.60;99.90;;;;;;4981903;28;20037;-77
2023/03/11 10:59:30;;;;;;;4.13;0.68;;;6.10;99.90;;;;;;4971950;28;20044;-77
2023/03/11 11:02:01;;;;;;;3.72;1.00;;;6.40;99.90;;;;;;4989525;28;20076;-77
2023/03/11 11:04:38;;;;;;;3.35;1.15;;;7.70;99.90;;;;;;4975239;28;20125;-77
2023/03/11 11:07:28;;;;;;;5.25;1.63;;;7.30;99.90;;;;;;4970756;28;20042;-77
2023/03/11 11:10:22;;;;;;;2.85;1.55;;;7.50;99.90;;;;;;4985431;28;20515;-77
2023/03/11 11:12:55;;;;;;;2.72;1.45;;;7.00;99.90;;;;;;4981414;28;20088;-77
2023/03/11 11:15:34;;;;;;;3.83;1.33;;;7.00;99.90;;;;;;4983833;28;20037;-76
2023/03/11 11:18:14;;;;;;;5.07;0.93;;;6.80;99.90;;;;;;4957728;28;20558;-77
2023/03/11 11:20:40;;;;;;;2.30;1.15;;;7.20;99.90;;;;;;4985065;28;20039;-76
2023/03/11 11:23:11;;;;;;;11.85;1.00;;;6.60;99.90;;;;;;4970517;28;20029;-77
2023/03/11 11:25:40;;;;;;;5.32;0.80;;;6.20;99.90;;;;;;4971596;28;20509;-77
2023/03/11 11:28:11;;;;;;;6.43;1.00;;;6.30;99.90;;;;;;4983897;28;20065;-77
2023/03/11 11:30:36;;;;;;;2.10;1.08;;;6.50;99.90;;;;;;5000812;28;20091;-77
2023/03/11 11:33:28;;;;;;;3.60;1.20;;;6.90;99.90;;;;;;4971654;28;20050;-77
2023/03/11 11:35:57;;;;;;;1.98;0.80;;;7.40;99.90;;;;;;4970039;28;20026;-76
2023/03/11 11:38:24;;;;;;;3.10;0.73;;;7.40;99.90;;;;;;4971405;28;20490;-77
2023/03/11 11:40:51;;;;;;;6.10;0.73;;;7.10;99.90;;;;;;4969317;28;20038;-77
2023/03/11 11:43:18;;;;;;;4.53;1.05;;;6.70;99.90;;;;;;4975490;28;20041;-77
2023/03/11 11:45:45;;;;;;;3.67;0.70;;;7.00;99.90;;;;;;4952007;28;20406;-77
2023/03/11 11:48:36;;;;;;;6.80;1.00;;;8.40;99.90;;;;;;4966558;28;20030;-77
2023/03/11 11:51:07;;;;;;;4.00;1.30;;;9.00;99.90;;;;;;4994416;28;20033;-77
2023/03/11 11:53:45;;;;;;;4.28;0.93;;;9.20;99.90;;;;;;4952886;28;20117;-77
2023/03/11 11:56:11;;;;;;;4.95;1.02;;;8.80;99.90;;;;;;4987408;28;20036;-77
2023/03/11 11:58:39;;;;;;;5.72;1.00;;;9.10;99.90;;;;;;4971411;28;20038;-77
2023/03/11 12:01:14;;;;;;;1.67;0.93;;;9.80;99.90;;;;;;4970634;28;20781;-77
2023/03/11 12:04:19;;;;;;;4.63;0.93;;;9.60;99.90;;;;;;4970234;28;20033;-77
2023/03/11 12:06:58;;;;;;;6.82;0.90;;;9.20;99.90;;;;;;4977520;28;20037;-77
2023/03/11 12:09:49;;;;;;;1.42;0.68;;;9.20;99.90;;;;;;4985341;28;20025;-77
2023/03/11 12:12:27;;;;;;;2.38;0.70;;;8.80;99.90;;;;;;4958209;28;20092;-77
2023/03/11 12:15:08;;;;;;;3.55;0.88;;;8.50;99.90;;;;;;5001683;28;20124;-77
2023/03/11 12:17:35;;;;;;;5.72;0.98;;;8.30;99.90;;;;;;5002619;28;20022;-77
2023/03/11 12:20:13;;;;;;;4.45;0.85;;;8.00;99.90;;;;;;4966973;28;20049;-77
2023/03/11 12:23:00;;;;;;;3.63;0.88;;;8.00;99.90;;;;;;4981500;28;20113;-77
2023/03/11 12:25:39;;;;;;;4.38;1.02;;;7.90;99.90;;;;;;5001206;28;20493;-77
2023/03/11 12:28:21;;;;;;;1.95;0.50;;;7.90;99.90;;;;;;4988604;28;20381;-77
2023/03/11 12:30:49;;;;;;;3.35;0.65;;;7.90;99.90;;;;;;4957411;28;20500;-77
2023/03/11 12:33:23;;;;;;;3.85;0.60;;;8.10;99.90;;;;;;4972381;28;20037;-77
2023/03/11 12:35:54;;;;;;;2.65;0.80;;;8.00;99.90;;;;;;4973442;28;20038;-77
2023/03/11 12:38:28;;;;;;;1.73;0.57;;;7.60;99.90;;;;;;4950952;28;20034;-77
2023/03/11 12:41:16;;;;;;;1.27;0.73;;;8.10;99.90;;;;;;4940930;28;20041;-77
2023/03/11 12:43:42;;;;;;;4.10;0.77;;;8.30;99.90;;;;;;4989746;28;20046;-77
2023/03/11 12:46:11;;;;;;;4.25;0.75;;;8.10;99.90;;;;;;4972096;28;20053;-78
2023/03/11 12:48:54;;;;;;;;;;;;;;;;;;;;;
2023/03/11 12:51:26;;;;;;;2.75;0.90;;;8.60;99.90;;;;;;4991849;28;20413;-77
2023/03/11 12:53:53;;;;;;;2.67;1.05;;;8.20;99.90;;;;;;4970547;28;20514;-77
2023/03/11 12:56:27;;;;;;;2.60;0.50;;;8.10;99.90;;;;;;4964611;28;20148;-77
2023/03/11 12:59:05;;;;;;;1.80;0.68;;;7.70;99.90;;;;;;4989633;28;20029;-77
2023/03/11 13:01:40;;;;;;;1.60;0.52;;;7.80;99.90;;;;;;4985069;28;20107;-77
2023/03/11 13:04:21;;;;;;;2.65;0.80;;;7.80;99.90;;;;;;4973864;28;20049;-77
2023/03/11 13:07:04;;;;;;;2.75;0.63;;;8.00;99.90;;;;;;4975857;28;20491;-77
2023/03/11 13:09:30;;;;;;;6.82;1.48;;;7.90;99.90;;;;;;4968877;28;20117;-77
2023/03/11 13:11:55;;;;;;;4.50;1.00;;;8.10;99.90;;;;;;4964756;28;20435;-77
2023/03/11 13:14:31;;;;;;;4.65;0.80;;;8.30;99.90;;;;;;4955628;28;20075;-77
2023/03/11 13:17:23;;;;;;;5.40;1.13;;;8.00;99.90;;;;;;4973185;28;20034;-77
2023/03/11 13:19:53;;;;;;;8.48;1.33;;;8.20;99.90;;;;;;4964826;28;20116;-77
2023/03/11 13:22:42;;;;;;;6.30;1.00;;;8.30;99.90;;;;;;4972864;28;20489;-77
2023/03/11 13:25:27;;;;;;;3.78;0.90;;;8.40;99.90;;;;;;4987528;28;20034;-78
2023/03/11 13:27:57;;;;;;;3.80;1.13;;;8.30;99.90;;;;;;4976584;28;20033;-77
2023/03/11 13:30:25;;;;;;;10.10;1.70;;;8.00;99.90;;;;;;4955640;28;20029;-77
2023/03/11 13:32:52;;;;;;;2.60;1.10;;;7.90;99.90;;;;;;4947559;28;20116;-77
2023/03/11 13:35:43;;;;;;;3.65;1.42;;;7.90;99.90;;;;;;4992161;28;20091;-78
2023/03/11 13:38:28;;;;;;;1.45;0.80;;;7.80;99.90;;;;;;5004138;28;20423;-76
2023/03/11 13:40:54;;;;;;;2.35;1.15;;;7.90;99.90;;;;;;4986578;28;20034;-75
2023/03/11 13:43:23;;;;;;;5.45;1.50;;;8.00;99.90;;;;;;4986779;28;20045;-77
2023/03/11 13:46:01;;;;;;;5.65;1.60;;;8.00;99.90;;;;;;4970796;28;20485;-77
2023/03/11 13:48:31;;;;;;;3.78;1.58;;;7.80;99.90;;;;;;4979862;28;20041;-77
2023/03/11 13:51:03;;;;;;;4.15;1.92;;;7.50;99.90;;;;;;4958364;28;20076;-78
2023/03/11 13:53:33;;;;;;;7.78;1.40;;;7.60;99.90;;;;;;5006263;28;20057;-77
2023/03/11 13:55:58;;;;;;;4.75;1.23;;;7.60;99.90;;;;;;4974590;28;20030;-77
2023/03/11 13:58:25;;;;;;;4.93;1.55;;;7.70;99.90;;;;;;4971744;28;20502;-77
2023/03/11 14:00:52;;;;;;;6.10;1.50;;;7.30;99.90;;;;;;4975042;28;20043;-77
2023/03/11 14:03:21;;;;;;;10.98;2.33;;;7.10;99.90;;;;;;4953817;28;20091;-77
2023/03/11 14:06:01;;;;;;;6.00;2.13;;;7.00;99.90;;;;;;4970529;28;20044;-78
2023/03/11 14:08:33;;;;;;;2.92;1.23;;;7.10;99.90;;;;;;4977678;28;20052;-77
2023/03/11 14:11:20;;;;;;;3.60;1.40;;;7.80;99.90;;;;;;4965589;28;20038;-77
2023/03/11 14:13:49;;;;;;;5.38;1.58;;;7.90;99.90;;;;;;4987798;28;20037;-77
2023/03/11 14:16:22;;;;;;;3.63;1.10;;;7.50;99.90;;;;;;4959121;28;20054;-78
2023/03/11 14:19:00;;;;;;;4.35;1.40;;;7.50;99.90;;;;;;4960828;28;20517;-77
2023/03/11 14:21:26;;;;;;;3.92;0.68;;;7.50;99.90;;;;;;4984636;28;20050;-78
2023/03/11 14:23:52;;;;;;;4.22;1.38;;;8.20;99.90;;;;;;4952365;28;20060;-77
2023/03/11 14:26:19;;;;;;;1.45;0.95;;;8.90;99.90;;;;;;4973369;28;20025;-77
2023/03/11 14:28:49;;;;;;;4.22;1.20;;;9.10;99.90;;;;;;4993069;28;20031;-78
2023/03/11 14:31:32;;;;;;;3.67;1.00;;;9.00;99.90;;;;;;4977282;28;20427;-77
2023/03/11 14:34:03;;;;;;;4.43;1.23;;;10.00;99.90;;;;;;4958737;28;20034;-77
2023/03/11 14:36:30;;;;;;;4.47;1.45;;;10.20;99.90;;;;;;4969277;28;20026;-78
2023/03/11 14:38:56;;;;;;;3.30;0.95;;;10.00;99.90;;;;;;4959676;28;20486;-77
2023/03/11 14:41:24;;;;;;;6.75;1.77;;;9.20;99.90;;;;;;4967931;28;20034;-77
2023/03/11 14:43:50;;;;;;;3.80;1.15;;;9.40;99.90;;;;;;4959482;28;20148;-78
2023/03/11 14:46:22;;;;;;;4.32;1.02;;;10.10;99.90;;;;;;4947619;28;20034;-77
2023/03/11 14:48:48;;;;;;;4.82;1.23;;;10.60;99.90;;;;;;4964507;28;20053;-77
2023/03/11 14:51:19;;;;;;;4.53;2.00;;;10.90;99.90;;;;;;4961099;28;20391;-77
2023/03/11 14:53:47;;;;;;;3.63;1.30;;;10.50;99.90;;;;;;4961884;28;20113;-77
2023/03/11 14:56:17;;;;;;;8.45;2.05;;;9.70;99.90;;;;;;4953286;28;20033;-77
2023/03/11 14:58:44;;;;;;;4.43;1.10;;;9.40;99.90;;;;;;4965927;28;20683;-78
2023/03/11 15:01:22;;;;;;;3.33;0.90;;;8.80;99.90;;;;;;4988367;28;20034;-78
2023/03/11 15:03:57;;;;;;;6.05;1.08;;;8.70;99.90;;;;;;4974699;28;20034;-77
2023/03/11 15:06:26;;;;;;;1.70;1.10;;;9.60;99.90;;;;;;4974426;28;20520;-77
2023/03/11 15:08:58;;;;;;;3.22;1.20;;;9.40;99.90;;;;;;4948757;28;20094;-77
2023/03/11 15:11:24;;;;;;;2.30;1.00;;;9.90;99.90;;;;;;4946884;28;20503;-77
2023/03/11 15:13:50;;;;;;;3.40;1.17;;;9.90;99.90;;;;;;4961505;28;20025;-77